createdAt,value
2022-11-17T00:27:39.203Z,10.45
2022-11-17T00:56:37.762Z,10.58
2022-11-17T01:25:39.743Z,10.57
2022-11-17T01:54:34.079Z,10.46
2022-11-17T02:23:31.267Z,10.3
2022-11-17T02:52:26.716Z,10.55
2022-11-17T03:21:24.782Z,10.64
2022-11-17T03:50:17.681Z,10.69
2022-11-17T04:19:16.688Z,10.66
2022-11-17T04:48:21.102Z,10.76
2022-11-17T05:17:18.174Z,10.98
2022-11-17T05:46:18.279Z,11.5
2022-11-17T06:15:18.449Z,12.15
2022-11-17T06:44:21.239Z,12.33
2022-11-17T07:13:12.459Z,12.24
2022-11-17T07:42:12.213Z,12.12
2022-11-17T08:11:06.218Z,12.38
2022-11-17T08:40:05.608Z,12.25
2022-11-17T09:09:04.198Z,12.36
2022-11-17T09:37:34.863Z,12.48
2022-11-17T10:06:37.985Z,12.9
2022-11-17T10:35:30.606Z,12.3
2022-11-17T11:04:24.071Z,12.76
2022-11-17T11:33:25.393Z,13.68
2022-11-17T12:02:25.044Z,13.55
2022-11-17T12:31:14.548Z,13.41
2022-11-17T13:00:12.992Z,14.06
2022-11-17T13:29:17.678Z,14.15
2022-11-17T13:58:26.394Z,14.09
2022-11-17T14:26:39.872Z,14.13
2022-11-17T14:55:38.678Z,13.81
2022-11-17T15:24:39.652Z,13.75
2022-11-17T15:53:34.854Z,13.59
2022-11-17T16:22:24.065Z,13.47
2022-11-17T16:51:22.575Z,13.47
2022-11-17T17:20:14.913Z,13.71
2022-11-17T17:49:02.992Z,13.75
2022-11-17T18:17:53.297Z,13.42
2022-11-17T18:46:46.636Z,12.18
2022-11-17T19:15:34.557Z,11.86
2022-11-17T19:44:26.097Z,11.32
2022-11-17T20:13:10.619Z,11.34
2022-11-17T20:42:10.357Z,10.78
2022-11-17T21:11:07.740Z,10.62
2022-11-17T21:40:11.740Z,10.57
2022-11-17T22:09:10.496Z,10.49
2022-11-17T22:38:12.381Z,10.57
2022-11-17T23:07:06.796Z,10.38
2022-11-17T23:35:59.181Z,10.35
